Airfield :
LOGIN :

Register | Disclaimer

   EN    FR    IT 

 










Legend :    VFR   Marginal VFR   IFR   Intensive IFR   Very Intensive IFR
Visi :
Ceiling :
>= 8 km
>= 3000ft
5 to 8 km
1000 to 3000 ft
1500m to 5 km
500 to 1000 ft
800 to 1500m
200 to 500 ft
< 800m
< 200 ft
Symbols :   Thunderstorms  Fog  Heavy snow  Heavy precipitations  Wind > 20 kt
SIGMETs :     Misc.  Thunderstorms  Icing  Turbulence  Mountain Waves  Volcanic Ashes







- Airport Elevation : 17 ft
- IATA code : CPH


EKCH - København - Kastrup (Copenhagen)

CURRENT METAR :
  • 162149Z 19006KT 170V240 2500 BR BKN017 14/13 Q1019 TEMPO 1500

EXPIRED METARs :
  • 162120Z 19006KT 1800 BR BKN018 13/13 Q1019 TEMPO 0300 FG VV001
  • 162050Z 20004KT 1400 R22L/P1500N R04L/P1500N R12/P1500N BR FEW005 11/11 Q1020 TEMPO 0300 FG VV001
  • 162020Z 22004KT 1000 R22L/P1500N R04L/P1500N R12/P1500N BR NSC 12/12 Q1020 TEMPO 0300 FG VV001
  • 161950Z 23005KT 2000 BR NSC 12/12 Q1020 TEMPO 0300 FG VV001
  • 161920Z 24006KT 2500 BR NSC 13/13 Q1020 TEMPO 0300 FG VV001

TAF COR TAF EKCH
Valid from the 16 at 21:00 until the 17 at 18:00 UTC


162155Z 1621/1718 22008KT 6000 BKN015
TEMPO 1621/1707 1500 BR BKN004
TEMPO 1709/1718 24015G25KT
No reported NOTAMs for that airfield.



MET'MAP, your aeronautical weather chart ! - Copyright ORBIFLY December 2007 - Disclaimer

ORBIFLY MET'MAP TEAM :

Programming & Development : Alexandra Zaïnal
Concept & Development : Baudouin d'Aumeries
Co-Development & Prog : Marc-Olivier Méhu
Technical & hardware support : Manuel Goepfert

Contact : metmap@orbifly.com




SOURCES & CREDITS :

   NOAA